Latest Weather Observations for Argyle

IDW60801

Issued at 6:05 pm WST Monday 21 April 2014 (issued every 30 minutes, with the page automatically refreshed every 10 minutes)

About weather observations | Map of weather stations | Latest weather observations for WA | Other Formats
Station Details ID: 002064 Name: ARGYLE AERODROME Lat: -16.64 Lon: 128.45 Height: 164.0 m
Data from the previous 72 hours. | See also: Recent months at Argyle
Date/Time
WST
Temp
°C
App
Temp
°C
Dew
Point
Rel
Hum
%
Delta-T
°C
Wind Press
QNH
hPa
Press
MSL
hPa
Rain
since 9 am
mm
Dir
 
Spd
km/h
Gust
km/h
Spd
kts
Gust
kts
21/06:00pm 29.4 28.9 12.2 34 10.1 N 6 7 3 4 1012.4 1011.3 0.0
21/05:30pm 30.6 30.6 11.2 30 11.3 NNE 2 9 1 5 1012.1 - 0.0
21/05:00pm 32.5 33.1 12.0 28 12.2 CALM 0 0 0 0 1011.7 - 0.0
21/04:30pm 33.7 33.3 8.4 21 14.3 CALM 0 0 0 0 1011.5 - 0.0
21/04:00pm 33.8 32.0 7.1 19 14.8 E 6 9 3 5 1011.1 - 0.0
21/03:30pm 34.1 32.1 6.4 18 15.2 WNW 6 11 3 6 1011.0 - 0.0
21/03:00pm 34.2 31.4 6.9 18 15.1 E 11 15 6 8 1010.8 1009.7 0.0
21/02:30pm 34.1 31.7 7.0 18 15.0 N 9 17 5 9 1010.8 - 0.0
21/02:00pm 34.1 31.5 6.1 17 15.3 E 9 15 5 8 1010.9 - 0.0
21/01:30pm 34.1 31.0 5.7 17 15.4 ENE 11 20 6 11 1011.1 - 0.0
21/01:00pm 34.2 30.7 5.6 17 15.5 ESE 13 17 7 9 1011.5 - 0.0
21/12:30pm 33.7 30.0 4.5 16 15.5 ESE 13 20 7 11 1011.8 - 0.0
21/12:00pm 33.2 29.6 5.2 17 15.0 E 13 20 7 11 1012.4 1011.3 0.0
21/11:30am 32.5 28.2 5.4 18 14.5 E 17 26 9 14 1012.9 - 0.0
21/11:00am 31.8 27.4 4.6 18 14.3 E 17 24 9 13 1013.4 - 0.0
21/10:30am 31.7 27.9 3.7 17 14.5 E 13 20 7 11 1013.9 - 0.0
21/10:00am 31.1 28.1 4.2 18 14.0 E 9 15 5 8 1014.4 - 0.0
21/09:30am 30.8 27.8 5.9 21 13.3 SE 11 17 6 9 1014.9 - 0.0
21/09:00am 29.4 26.4 6.1 23 12.4 ESE 11 15 6 8 1015.1 1014.0 0.0
21/08:30am 28.7 26.2 6.6 24 11.8 ESE 9 13 5 7 1015.1 - 0.0
21/08:00am 27.6 25.4 7.9 28 10.7 SSE 9 13 5 7 1014.8 - 0.0
21/07:30am 26.6 25.1 8.4 31 9.9 SSE 6 7 3 4 1014.6 - 0.0
21/07:00am 24.2 22.8 9.4 39 8.1 SSE 7 9 4 5 1014.5 - 0.0
21/06:30am 23.7 23.8 10.1 42 7.5 CALM 0 0 0 0 1014.2 - 0.0
21/06:00am 22.4 22.0 8.3 40 7.5 CALM 0 0 0 0 1013.6 1012.5 0.0
21/05:30am 22.0 21.0 9.0 43 7.0 NW 4 7 2 4 1013.4 - 0.0
21/05:00am 21.4 20.1 9.3 46 6.5 NW 6 7 3 4 1013.1 - 0.0
21/04:30am 21.5 20.3 9.7 47 6.4 NW 6 7 3 4 1012.8 - 0.0
21/04:00am 22.0 20.6 8.7 42 7.1 WNW 6 7 3 4 1012.5 - 0.0
21/03:30am 22.7 22.5 9.2 42 7.3 CALM 0 0 0 0 1012.4 - 0.0
21/03:00am 22.5 22.4 9.4 43 7.1 CALM 0 0 0 0 1012.2 1011.2 0.0
21/02:30am 22.7 21.6 9.9 44 7.0 W 6 7 3 4 1012.4 - 0.0
21/02:00am 23.3 22.7 9.1 40 7.7 W 2 7 1 4 1012.5 - 0.0
21/01:30am 23.1 22.0 10.0 43 7.2 W 6 9 3 5 1012.6 - 0.0
21/01:00am 23.8 23.8 9.8 41 7.7 CALM 0 0 0 0 1012.6 - 0.0
21/12:30am 24.0 24.1 10.3 42 7.6 CALM 0 0 0 0 1012.7 - 0.0
21/12:00am 24.4 23.6 9.5 38 8.2 W 4 6 2 3 1012.8 1011.7 0.0
 
Date/Time
WST
Temp
°C
App
Temp
°C
Dew
Point
Rel
Hum
%
Delta-T
°C
Wind Press
QNH
hPa
Press
MSL
hPa
Rain
since 9 am
mm
Dir
 
Spd
km/h
Gust
km/h
Spd
kts
Gust
kts
20/11:30pm 24.0 22.6 9.4 39 8.0 WNW 7 9 4 5 1012.8 - 0.0
20/11:00pm 24.3 22.8 9.3 38 8.2 W 7 11 4 6 1013.0 - 0.0
20/10:00pm 25.8 24.8 9.0 34 9.2 N 4 6 2 3 1013.1 - 0.0
20/09:00pm 26.2 23.7 8.4 32 9.7 ESE 11 13 6 7 1013.0 1011.9 0.0
20/08:30pm 25.8 23.7 9.8 36 8.9 ESE 11 13 6 7 1013.3 - 0.0
20/08:00pm 26.1 24.6 10.7 38 8.7 E 9 11 5 6 1013.2 - 0.0
20/07:30pm 26.6 25.4 11.7 39 8.6 E 9 11 5 6 1013.0 - 0.0
20/07:00pm 26.9 25.9 12.3 40 8.5 E 9 11 5 6 1012.7 - 0.0
20/06:30pm 28.6 26.3 9.0 29 10.9 SE 11 13 6 7 1012.2 - 0.0
20/06:00pm 29.5 27.7 9.4 28 11.3 SSE 9 13 5 7 1011.8 1010.8 0.0
20/05:30pm 29.8 28.9 11.2 31 10.8 SE 7 9 4 5 1011.4 - 0.0
20/05:00pm 31.0 30.6 12.5 32 11.0 ENE 6 7 3 4 1011.1 - 0.0
20/04:00pm 33.2 30.5 7.2 20 14.4 E 11 15 6 8 1010.6 - 0.0
20/03:30pm 33.7 31.3 6.9 19 14.8 ENE 9 15 5 8 1010.4 - 0.0
20/03:00pm 33.9 31.9 7.3 19 14.8 SE 7 15 4 8 1010.3 1009.2 0.0
20/02:30pm 33.9 31.3 6.3 18 15.1 S 9 13 5 7 1010.3 - 0.0
20/02:00pm 33.6 30.0 5.0 16 15.3 SSE 13 22 7 12 1010.3 - 0.0
20/01:30pm 33.8 30.5 6.4 18 15.0 ESE 13 22 7 12 1010.7 - 0.0
20/01:00pm 33.6 29.4 5.7 17 15.1 E 17 24 9 13 1011.1 - 0.0
20/12:30pm 33.5 30.4 7.1 19 14.6 ESE 13 22 7 12 1011.5 - 0.0
20/12:00pm 32.9 29.8 7.2 20 14.2 SE 13 22 7 12 1012.1 1011.1 0.0
20/11:00am 31.8 28.3 8.7 24 13.0 ESE 17 26 9 14 1013.2 - 0.0
20/10:30am 30.8 29.1 9.7 27 12.0 SSE 9 13 5 7 1013.8 - 0.0
20/10:00am 30.6 29.2 9.6 27 11.9 E 7 11 4 6 1014.4 - 0.0
20/09:30am 30.3 38.8 30.3 100 0.0 E 9 15 5 8 1014.7 - 0.0
20/09:00am 28.9 36.3 28.9 100 0.0 ESE 9 15 5 8 1014.8 1013.7 0.0
20/08:30am 28.5 35.3 28.5 100 0.0 ESE 11 15 6 8 1014.8 - 0.0
20/08:00am 28.0 34.8 28.0 100 0.0 SE 9 13 5 7 1014.7 - 0.0
20/07:30am 27.2 33.8 27.2 100 0.0 SSE 7 11 4 6 1014.6 - 0.0
20/07:00am 25.4 31.3 25.4 100 0.0 SE 4 7 2 4 1014.5 - 0.0
20/06:30am 23.1 28.4 23.1 100 0.0 CALM 0 0 0 0 1014.4 - 0.0
20/06:00am 21.4 25.7 21.1 98 0.2 CALM 0 0 0 0 1014.2 1013.1 0.0
20/05:30am 21.0 24.1 21.0 100 0.0 ESE 6 7 3 4 1013.6 - 0.0
20/05:00am 21.2 24.8 21.2 100 0.0 SSW 4 6 2 3 1013.3 - 0.0
20/04:30am 21.2 24.2 21.2 100 0.0 W 7 9 4 5 1012.8 - 0.0
20/04:00am 21.4 25.0 21.2 99 0.1 WNW 4 6 2 3 1012.7 - 0.0
20/03:30am 21.4 24.5 21.4 100 0.0 NW 7 7 4 4 1012.7 - 0.0
20/03:00am 22.0 25.4 22.0 100 0.0 WNW 7 7 4 4 1012.7 1011.6 0.0
20/02:30am 22.4 26.2 22.4 100 0.0 WNW 6 7 3 4 1012.4 - 0.0
20/02:00am 22.7 26.5 22.7 100 0.0 NW 7 9 4 5 1012.5 - 0.0
20/01:30am 22.3 25.8 22.2 99 0.1 WNW 7 9 4 5 1012.2 - 0.0
20/01:00am 22.6 26.3 22.5 99 0.1 NW 7 9 4 5 1012.5 - 0.0
20/12:30am 22.7 26.5 22.7 100 0.0 NW 7 7 4 4 1012.8 - 0.0
20/12:00am 23.3 28.7 23.3 100 0.0 CALM 0 0 0 0 1012.9 1011.8 0.0
 
Date/Time
WST
Temp
°C
App
Temp
°C
Dew
Point
Rel
Hum
%
Delta-T
°C
Wind Press
QNH
hPa
Press
MSL
hPa
Rain
since 9 am
mm
Dir
 
Spd
km/h
Gust
km/h
Spd
kts
Gust
kts
19/11:30pm 24.0 29.8 24.0 100 0.0 CALM 0 0 0 0 1013.0 - 0.0
19/11:00pm 24.5 29.9 24.5 100 0.0 SSW 4 9 2 5 1013.1 - 0.0
19/10:30pm 24.9 29.9 24.8 99 0.1 SE 7 9 4 5 1013.4 - 0.0
19/10:00pm 25.1 29.9 25.1 100 0.0 SE 9 11 5 6 1013.5 - 0.0
19/09:30pm 25.3 29.8 25.2 99 0.1 E 11 13 6 7 1013.6 - 0.0
19/09:00pm 26.3 31.5 26.3 100 0.0 ENE 11 15 6 8 1013.6 1012.5 0.0
19/08:30pm 26.6 32.5 26.2 98 0.3 E 7 11 4 6 1013.6 - 0.0
19/08:00pm 26.6 32.4 26.6 100 0.0 E 9 11 5 6 1013.5 - 0.0
19/07:30pm 26.7 32.5 26.6 99 0.1 E 9 9 5 5 1013.2 - 0.0
19/07:00pm 27.9 34.5 27.8 99 0.1 E 9 13 5 7 1012.6 - 0.0
19/06:30pm 28.2 35.5 28.2 100 0.0 ESE 7 9 4 5 1012.1 - 0.0
19/06:00pm 29.0 36.9 29.0 100 0.0 SE 7 9 4 5 1011.7 1010.7 0.0
19/05:30pm 29.9 38.5 29.9 100 0.0 SSE 7 11 4 6 1011.5 - 0.0
19/05:00pm 31.7 41.4 31.7 100 0.0 ESE 9 11 5 6 1011.3 - 0.0
19/04:30pm 33.1 44.1 33.1 100 0.0 ESE 9 15 5 8 1011.0 - 0.0
19/04:00pm 33.8 45.1 33.8 100 0.0 ESE 11 20 6 11 1010.8 - 0.0
19/03:30pm 34.1 46.1 34.1 100 0.0 E 9 13 5 7 1010.6 - 0.0
19/03:00pm 34.2 45.4 34.1 99 0.1 E 13 19 7 10 1010.5 1009.4 0.0
19/02:30pm 34.0 45.5 34.0 100 0.0 E 11 20 6 11 1010.5 - 0.0
19/02:00pm 34.3 46.1 34.3 100 0.0 E 11 20 6 11 1010.6 - 0.0
19/01:30pm 34.0 44.0 34.0 100 0.0 ENE 19 28 10 15 1010.8 - 0.0
19/01:00pm 33.7 44.5 33.7 100 0.0 ESE 13 20 7 11 1011.3 - 0.0
19/12:30pm 33.9 43.5 33.8 99 0.1 E 20 30 11 16 1011.9 - 0.0
19/12:00pm 33.7 43.5 33.4 98 0.2 E 17 28 9 15 1012.4 1011.3 0.0
19/11:30am 32.8 41.9 32.7 99 0.1 E 17 28 9 15 1013.0 - 0.0
19/11:00am 31.9 41.8 31.9 100 0.0 SE 9 17 5 9 1013.7 - 0.0
19/10:30am 32.0 40.8 32.0 100 0.0 ESE 15 24 8 13 1014.3 - 0.0
19/10:00am 31.2 39.9 30.9 98 0.2 SSE 11 19 6 10 1014.8 - 0.0
19/09:30am 30.1 38.1 30.1 100 0.0 SE 11 19 6 10 1015.3 - 0.0
19/09:00am 29.3 36.7 29.3 100 0.0 SE 11 17 6 9 1015.5 1014.4 0.0
19/08:30am 29.0 35.8 29.0 100 0.0 SE 13 19 7 10 1015.7 - 0.0
19/08:00am 27.9 33.5 27.9 100 0.0 ESE 15 19 8 10 1015.6 - 0.0
19/07:30am 27.2 32.3 27.2 100 0.0 SE 15 22 8 12 1015.6 - 0.0
19/07:00am 26.0 31.0 26.0 100 0.0 SE 11 17 6 9 1015.5 - 0.0
19/06:30am 24.9 30.0 24.9 100 0.0 SE 7 11 4 6 1015.3 - 0.0
19/06:00am 21.7 25.1 21.7 100 0.0 SW 6 7 3 4 1015.1 1014.0 0.0
19/05:30am 22.3 26.0 22.3 100 0.0 SW 6 7 3 4 1014.8 - 0.0
19/05:00am 22.1 26.0 21.9 99 0.1 WNW 4 7 2 4 1014.7 - 0.0
19/04:30am 22.9 26.7 22.8 99 0.1 SE 7 9 4 5 1014.5 - 0.0
19/04:00am 23.4 26.8 23.4 100 0.0 E 11 13 6 7 1014.4 - 0.0
19/03:30am 23.4 26.4 23.4 100 0.0 N 13 17 7 9 1014.4 - 0.0
19/03:00am 24.6 29.5 24.6 100 0.0 SE 7 17 4 9 1014.0 1012.9 0.0
19/02:30am 23.8 28.1 23.7 99 0.1 N 7 9 4 5 1014.1 - 0.0
19/02:00am 23.5 27.9 23.4 99 0.1 NE 6 11 3 6 1014.0 - 0.0
19/01:30am 25.7 23.2 9.6 36 8.9 ESE 13 19 7 10 1013.9 - 0.0
19/01:00am 25.5 23.3 9.3 36 8.9 ESE 11 19 6 10 1013.8 - 0.0
19/12:30am 26.3 23.9 8.8 33 9.6 SE 11 19 6 10 1014.1 - 0.0
19/12:00am 25.7 22.8 9.6 36 8.9 SE 15 17 8 9 1014.3 1013.2 0.0
 
Date/Time
WST
Temp
°C
App
Temp
°C
Dew
Point
Rel
Hum
%
Delta-T
°C
Wind Press
QNH
hPa
Press
MSL
hPa
Rain
since 9 am
mm
Dir
 
Spd
km/h
Gust
km/h
Spd
kts
Gust
kts
18/11:30pm 25.1 22.8 10.5 39 8.2 SE 13 15 7 8 1014.5 - 0.0
18/11:00pm 25.1 23.8 11.4 42 7.8 ESE 9 11 5 6 1014.7 - 0.0
18/10:30pm 26.2 24.7 10.4 37 8.9 ENE 9 13 5 7 1014.8 - 0.0
18/10:00pm 25.6 24.5 11.9 42 7.9 E 9 13 5 7 1014.7 - 0.0
18/09:30pm 25.7 24.2 11.8 42 8.0 E 11 11 6 6 1014.7 - 0.0
18/09:00pm 26.3 25.2 11.9 40 8.3 E 9 11 5 6 1014.7 1013.6 0.0
18/08:30pm 26.4 25.5 12.5 42 8.1 E 9 11 5 6 1014.7 - 0.0
18/08:00pm 27.1 26.1 12.4 40 8.6 E 9 11 5 6 1014.6 - 0.0
18/07:00pm 29.1 26.7 10.1 30 10.8 SE 13 17 7 9 1014.1 - 0.0
18/06:30pm 29.1 27.8 11.3 33 10.3 SE 9 13 5 7 1013.8 - 0.0

Other Formats:

Comma delimited format used in spreadsheet applications
http://www.bom.gov.au/fwo/IDW60801/IDW60801.94217.axf

JavaScript Object Notation format (JSON) in row-major order
http://www.bom.gov.au/fwo/IDW60801/IDW60801.94217.json